Time;durP1;ratioP1;P1;durP2;ratioP2;P2;SDS_P1;SDS_P2;PMS_P1;PMS_P2;Temp;Humidity;BMP_temperature;BMP_pressure;BME280_temperature;BME280_humidity;BME280_pressure;Samples;Min_cycle;Max_cycle;Signal;HPM_P1;HPM_P2
2022/12/23 00:01:01;;;;;;;103.35;54.20;;;7.60;99.90;;;;;;4905153;29;20107;-76
2022/12/23 00:03:28;;;;;;;129.70;56.65;;;7.60;99.90;;;;;;4906733;29;20427;-76
2022/12/23 00:05:54;;;;;;;139.52;59.47;;;7.60;99.90;;;;;;4901641;29;20051;-75
2022/12/23 00:08:20;;;;;;;226.23;66.90;;;7.60;99.90;;;;;;4907460;29;20107;-76
2022/12/23 00:10:48;;;;;;;176.20;59.95;;;7.60;99.90;;;;;;4915366;29;20584;-75
2022/12/23 00:16:06;;;;;;;250.88;68.25;;;7.70;99.90;;;;;;4939418;28;20051;-76
2022/12/23 00:18:32;;;;;;;127.57;57.50;;;7.60;99.90;;;;;;4913562;29;20052;-75
2022/12/23 00:21:04;;;;;;;129.25;56.03;;;7.70;99.90;;;;;;4922862;29;20142;-75
2022/12/23 00:23:34;;;;;;;486.23;87.70;;;7.70;99.90;;;;;;4914633;29;20135;-75
2022/12/23 00:26:00;;;;;;;;;;;7.60;99.90;;;;;;4922609;29;20051;-75
2022/12/23 00:28:28;;;;;;;170.45;61.85;;;7.60;99.90;;;;;;4929725;29;20388;-76
2022/12/23 00:30:59;;;;;;;161.93;59.58;;;7.60;99.90;;;;;;4917319;29;20047;-75
2022/12/23 00:33:29;;;;;;;118.88;55.42;;;7.60;99.90;;;;;;4912866;29;20154;-76
2022/12/23 00:35:55;;;;;;;175.63;62.05;;;7.70;99.90;;;;;;4903638;29;20060;-76
2022/12/23 00:43:56;;;;;;;167.88;61.00;;;7.60;99.90;;;;;;4927804;28;20043;-76
2022/12/23 00:46:21;;;;;;;187.05;61.35;;;7.60;99.90;;;;;;4917160;29;20089;-76
2022/12/23 00:51:36;;;;;;;171.60;64.10;;;7.60;99.90;;;;;;4932019;29;20497;-76
2022/12/23 00:54:02;;;;;;;444.33;83.72;;;7.60;99.90;;;;;;4924743;29;20703;-76
2022/12/23 00:56:28;;;;;;;296.52;73.60;;;7.50;99.90;;;;;;4912023;29;20387;-77
2022/12/23 00:58:54;;;;;;;212.57;69.72;;;7.60;99.90;;;;;;4910145;29;20055;-76
2022/12/23 01:06:56;;;;;;;200.25;64.65;;;7.60;99.90;;;;;;4925983;28;20059;-76
2022/12/23 01:09:22;;;;;;;220.60;68.93;;;7.60;99.90;;;;;;4912836;29;20044;-76
2022/12/23 01:11:48;;;;;;;155.38;59.38;;;7.60;99.90;;;;;;4886478;29;20036;-76
2022/12/23 01:14:14;;;;;;;292.23;68.88;;;7.60;99.90;;;;;;4898159;29;20051;-76
2022/12/23 01:16:40;;;;;;;164.55;61.55;;;7.60;99.90;;;;;;4935676;28;20487;-76
2022/12/23 01:19:07;;;;;;;187.95;64.47;;;7.60;99.90;;;;;;4928183;29;20048;-76
2022/12/23 01:21:32;;;;;;;184.50;65.15;;;7.50;99.90;;;;;;4922195;29;20040;-77
2022/12/23 01:23:59;;;;;;;696.78;94.13;;;7.60;99.90;;;;;;4920632;29;20036;-76
2022/12/23 01:26:25;;;;;;;242.55;65.53;;;7.60;99.90;;;;;;4904974;29;20375;-76
2022/12/23 01:28:55;;;;;;;155.57;61.05;;;7.60;99.90;;;;;;4910411;29;20158;-77
2022/12/23 01:31:22;;;;;;;197.65;63.33;;;7.60;99.90;;;;;;4923718;29;20170;-77
2022/12/23 01:33:48;;;;;;;261.48;67.00;;;7.60;99.90;;;;;;4893928;29;20051;-77
2022/12/23 01:36:14;;;;;;;153.82;60.67;;;7.60;99.90;;;;;;4907082;29;20060;-77
2022/12/23 01:38:40;;;;;;;122.68;55.85;;;7.60;99.90;;;;;;4897443;29;20533;-77
2022/12/23 01:41:05;;;;;;;210.32;64.28;;;7.60;99.90;;;;;;4892672;29;20047;-76
2022/12/23 01:43:50;;;;;;;248.20;66.25;;;7.60;99.90;;;;;;4912973;29;20055;-76
2022/12/23 01:46:16;;;;;;;268.25;68.63;;;7.60;99.90;;;;;;4896352;29;20123;-76
2022/12/23 01:48:47;;;;;;;145.80;56.88;;;7.60;99.90;;;;;;4913771;29;20126;-76
2022/12/23 01:51:22;;;;;;;150.40;59.55;;;7.60;99.90;;;;;;4912326;29;20056;-75
2022/12/23 01:53:52;;;;;;;252.52;63.78;;;7.60;99.90;;;;;;4900613;29;20051;-76
2022/12/23 01:56:32;;;;;;;671.45;91.05;;;7.60;99.90;;;;;;4899429;29;20063;-76
2022/12/23 01:59:06;;;;;;;172.63;61.42;;;7.60;99.90;;;;;;4911070;29;20191;-77
2022/12/23 02:04:19;;;;;;;162.68;60.58;;;7.60;99.90;;;;;;4920364;29;20055;-75
2022/12/23 02:09:37;;;;;;;850.83;106.88;;;7.60;99.90;;;;;;4932993;29;20604;-75
2022/12/23 02:12:20;;;;;;;650.72;83.38;;;7.60;99.90;;;;;;4894515;29;20457;-75
2022/12/23 02:17:51;;;;;;;459.08;77.13;;;7.60;99.90;;;;;;4928502;29;20055;-75
2022/12/23 02:20:31;;;;;;;586.05;85.70;;;7.60;99.90;;;;;;4929264;28;20507;-76
2022/12/23 02:23:26;;;;;;;449.63;74.88;;;7.60;99.90;;;;;;4911337;29;20048;-76
2022/12/23 02:26:14;;;;;;;531.70;77.32;;;7.70;99.90;;;;;;4917798;28;20114;-76
2022/12/23 02:28:46;;;;;;;486.90;71.18;;;7.60;99.90;;;;;;4914414;29;20058;-76
2022/12/23 02:31:43;;;;;;;548.45;79.20;;;7.60;99.90;;;;;;4916947;29;20090;-76
2022/12/23 02:34:19;;;;;;;468.58;69.60;;;7.70;99.90;;;;;;4914396;29;20048;-76
2022/12/23 02:37:00;;;;;;;548.65;70.53;;;7.70;99.90;;;;;;4910321;29;20052;-76
2022/12/23 02:39:38;;;;;;;425.17;62.70;;;7.60;99.90;;;;;;4918151;29;20541;-76
2022/12/23 02:42:20;;;;;;;505.20;72.38;;;7.60;99.90;;;;;;4914336;29;20073;-76
2022/12/23 02:45:13;;;;;;;409.20;69.28;;;7.70;99.90;;;;;;4926541;29;20052;-76
2022/12/23 02:47:43;;;;;;;363.45;61.38;;;7.70;99.90;;;;;;4924316;28;20066;-76
2022/12/23 02:50:16;;;;;;;504.42;72.65;;;7.60;99.90;;;;;;4903434;29;20274;-76
2022/12/23 02:52:45;;;;;;;328.02;59.25;;;7.70;99.90;;;;;;4896527;29;20487;-76
2022/12/23 02:55:21;;;;;;;372.10;64.05;;;7.70;99.90;;;;;;4924734;29;20063;-76
2022/12/23 02:57:49;;;;;;;611.20;79.47;;;7.60;99.90;;;;;;4925892;29;20105;-76
2022/12/23 03:00:17;;;;;;;517.45;75.72;;;7.60;99.90;;;;;;4886408;29;20402;-76
2022/12/23 03:02:43;;;;;;;408.10;70.68;;;7.60;99.90;;;;;;4919809;29;20048;-76
2022/12/23 03:05:43;;;;;;;395.83;66.65;;;7.60;99.90;;;;;;4898201;29;20559;-76
2022/12/23 03:08:26;;;;;;;405.85;69.85;;;7.70;99.90;;;;;;4898093;29;20051;-75
2022/12/23 03:11:03;;;;;;;334.15;67.82;;;7.60;99.90;;;;;;4913694;29;20481;-75
2022/12/23 03:13:47;;;;;;;391.83;68.47;;;7.70;99.90;;;;;;4903556;29;20044;-76
2022/12/23 03:16:25;;;;;;;283.02;60.90;;;7.60;99.90;;;;;;4912929;29;20051;-75
2022/12/23 03:19:31;;;;;;;311.25;60.55;;;7.70;99.90;;;;;;4917291;29;20043;-76
2022/12/23 03:22:18;;;;;;;351.98;63.08;;;7.60;99.90;;;;;;4922188;29;20048;-76
2022/12/23 03:25:05;;;;;;;115.00;45.03;;;7.60;99.90;;;;;;4909209;29;20056;-76
2022/12/23 03:27:41;;;;;;;444.75;65.85;;;7.60;99.90;;;;;;4904141;29;20043;-75
2022/12/23 03:30:12;;;;;;;348.63;60.70;;;7.60;99.90;;;;;;4902621;29;20056;-76
2022/12/23 03:32:45;;;;;;;364.92;63.45;;;7.60;99.90;;;;;;4907730;29;20574;-76
2022/12/23 03:35:16;;;;;;;448.58;66.90;;;7.60;99.90;;;;;;4895383;29;20856;-76
2022/12/23 03:37:45;;;;;;;192.43;50.53;;;7.60;99.90;;;;;;4903575;29;20513;-75
2022/12/23 03:40:17;;;;;;;207.27;49.78;;;7.60;99.90;;;;;;4902226;29;20040;-75
2022/12/23 03:42:46;;;;;;;252.77;53.88;;;7.60;99.90;;;;;;4906415;29;20046;-76
2022/12/23 03:45:28;;;;;;;309.60;56.50;;;7.60;99.90;;;;;;4905386;29;20086;-76
2022/12/23 03:48:22;;;;;;;157.13;45.08;;;7.60;99.90;;;;;;4907020;29;20048;-76
2022/12/23 03:50:54;;;;;;;339.83;60.15;;;7.60;99.90;;;;;;4905545;29;22292;-76
2022/12/23 03:53:45;;;;;;;254.20;52.40;;;7.60;99.90;;;;;;4906652;29;20059;-76
2022/12/23 03:56:17;;;;;;;;;;;7.60;99.90;;;;;;4914414;29;20051;-75
2022/12/23 03:59:00;;;;;;;205.38;51.30;;;7.60;99.90;;;;;;4920927;29;19934;-76
2022/12/23 04:02:07;;;;;;;102.18;39.60;;;7.60;99.90;;;;;;4901768;29;20175;-76
2022/12/23 04:04:45;;;;;;;313.33;55.13;;;7.50;99.90;;;;;;4897050;29;20051;-76
2022/12/23 04:07:17;;;;;;;247.88;51.15;;;7.50;99.90;;;;;;4903909;29;20040;-76
2022/12/23 04:09:43;;;;;;;232.68;49.97;;;7.50;99.90;;;;;;4908593;29;20119;-75
2022/12/23 04:12:09;;;;;;;200.25;47.45;;;7.60;99.90;;;;;;4894920;29;20495;-76
2022/12/23 04:14:36;;;;;;;173.52;47.55;;;7.50;99.90;;;;;;4922967;29;20046;-76
2022/12/23 04:17:02;;;;;;;320.80;54.47;;;7.60;99.90;;;;;;4905973;29;20499;-75
2022/12/23 04:19:28;;;;;;;243.35;48.67;;;7.50;99.90;;;;;;4908039;29;20055;-76
2022/12/23 04:21:56;;;;;;;94.10;38.05;;;7.60;99.90;;;;;;4907003;29;20132;-75
2022/12/23 04:24:22;;;;;;;272.88;50.95;;;7.50;99.90;;;;;;4889573;29;20052;-76
2022/12/23 04:26:48;;;;;;;248.80;51.25;;;7.60;99.90;;;;;;4925252;29;20132;-76
2022/12/23 04:29:14;;;;;;;150.00;43.10;;;7.50;99.90;;;;;;4899536;29;20044;-76
2022/12/23 04:31:39;;;;;;;292.15;49.35;;;7.60;99.90;;;;;;4894482;29;20036;-76
2022/12/23 04:34:05;;;;;;;301.70;53.53;;;7.50;99.90;;;;;;4874367;29;20107;-76
2022/12/23 04:36:34;;;;;;;308.70;52.67;;;7.50;99.90;;;;;;4907463;29;20111;-76
2022/12/23 04:39:00;;;;;;;342.15;55.35;;;7.50;99.90;;;;;;4923392;29;20036;-75
2022/12/23 04:41:25;;;;;;;234.20;52.13;;;7.50;99.90;;;;;;4898888;29;20824;-76
2022/12/23 04:43:51;;;;;;;221.38;50.28;;;7.50;99.90;;;;;;4910182;29;20819;-76
2022/12/23 04:46:17;;;;;;;273.77;49.22;;;7.50;99.90;;;;;;4910818;29;20048;-76
2022/12/23 04:48:43;;;;;;;321.02;54.70;;;7.40;99.90;;;;;;4913248;29;20063;-75
2022/12/23 04:51:09;;;;;;;310.08;54.13;;;7.50;99.90;;;;;;4897010;29;20052;-75
2022/12/23 04:53:36;;;;;;;203.77;46.97;;;7.50;99.90;;;;;;4904992;29;20048;-76
2022/12/23 04:56:02;;;;;;;201.88;47.85;;;7.50;99.90;;;;;;4917675;29;20114;-76
2022/12/23 04:58:27;;;;;;;261.75;50.42;;;7.50;99.90;;;;;;4899201;29;20052;-76
2022/12/23 05:01:08;;;;;;;318.08;56.42;;;7.50;99.90;;;;;;4900975;29;20063;-76
2022/12/23 05:03:34;;;;;;;300.30;52.58;;;7.50;99.90;;;;;;4930152;29;20047;-75
2022/12/23 05:06:00;;;;;;;264.17;51.88;;;7.40;99.90;;;;;;4898154;29;20044;-76
2022/12/23 05:08:26;;;;;;;230.93;47.65;;;7.40;99.90;;;;;;4905284;29;20074;-76
2022/12/23 05:10:52;;;;;;;335.73;56.40;;;7.40;99.90;;;;;;4916944;29;20444;-76
2022/12/23 05:13:18;;;;;;;282.48;51.70;;;7.40;99.90;;;;;;4909844;29;20086;-75
2022/12/23 05:15:47;;;;;;;146.30;41.58;;;7.40;99.90;;;;;;4923602;29;20044;-76
2022/12/23 05:18:13;;;;;;;419.13;59.08;;;7.40;99.90;;;;;;4903914;29;20059;-76
2022/12/23 05:20:39;;;;;;;516.50;62.47;;;7.40;99.90;;;;;;4913038;29;20050;-75
2022/12/23 05:23:04;;;;;;;490.23;62.47;;;7.40;99.90;;;;;;4920653;29;20047;-76
2022/12/23 05:25:32;;;;;;;491.58;60.60;;;7.40;99.90;;;;;;4895814;29;20050;-75
2022/12/23 05:27:58;;;;;;;470.60;61.30;;;7.40;99.90;;;;;;4887334;29;20055;-76
2022/12/23 05:30:24;;;;;;;536.30;57.33;;;7.40;99.90;;;;;;4897102;29;20078;-76
2022/12/23 05:32:54;;;;;;;668.15;67.47;;;7.40;99.90;;;;;;4914153;29;20051;-76
2022/12/23 05:35:21;;;;;;;754.70;74.20;;;7.40;99.90;;;;;;4899844;29;20136;-76
2022/12/23 05:37:47;;;;;;;753.70;74.78;;;7.40;99.90;;;;;;4894608;29;20040;-76
2022/12/23 05:40:13;;;;;;;676.38;64.68;;;7.40;99.90;;;;;;4893745;29;20059;-76
2022/12/23 05:42:39;;;;;;;642.95;61.28;;;7.30;99.90;;;;;;4877006;29;20052;-76
2022/12/23 05:45:05;;;;;;;749.42;70.82;;;7.30;99.90;;;;;;4903899;29;20060;-76
2022/12/23 05:47:32;;;;;;;527.28;51.15;;;7.30;99.90;;;;;;4887046;29;20056;-76
2022/12/23 05:49:57;;;;;;;98.25;32.83;;;7.30;99.90;;;;;;4881401;29;20063;-76
2022/12/23 05:52:23;;;;;;;146.02;35.03;;;7.30;99.90;;;;;;4888215;29;20495;-76
2022/12/23 05:54:49;;;;;;;181.13;37.15;;;7.30;99.90;;;;;;4890346;29;20051;-76
2022/12/23 05:57:15;;;;;;;568.10;54.25;;;7.30;99.90;;;;;;4885366;29;20059;-76
2022/12/23 05:59:41;;;;;;;707.10;63.88;;;7.20;99.90;;;;;;4885541;29;20056;-76
2022/12/23 06:02:06;;;;;;;676.75;61.22;;;7.30;99.90;;;;;;4878754;29;20064;-77
2022/12/23 06:04:32;;;;;;;698.00;63.45;;;7.20;99.90;;;;;;4889432;29;20515;-76
2022/12/23 06:06:58;;;;;;;546.67;50.72;;;7.20;99.90;;;;;;4879663;29;20044;-76
2022/12/23 06:09:24;;;;;;;111.05;29.83;;;7.20;99.90;;;;;;4881819;29;20104;-76
2022/12/23 06:11:50;;;;;;;168.93;32.40;;;7.20;99.90;;;;;;4875230;29;20041;-76
2022/12/23 06:14:15;;;;;;;649.95;60.67;;;7.20;99.90;;;;;;4890650;29;20111;-76
2022/12/23 06:16:41;;;;;;;596.13;56.50;;;7.20;99.90;;;;;;4886854;29;20104;-76
2022/12/23 06:19:07;;;;;;;540.25;49.60;;;7.20;99.90;;;;;;4897607;29;20083;-76
2022/12/23 06:21:33;;;;;;;647.13;57.72;;;7.20;99.90;;;;;;4880979;29;20158;-75
2022/12/23 06:23:59;;;;;;;611.75;56.45;;;7.20;99.90;;;;;;4899314;29;20453;-76
2022/12/23 06:26:25;;;;;;;490.00;47.38;;;7.20;99.90;;;;;;4890795;29;20059;-76
2022/12/23 06:28:51;;;;;;;466.33;46.00;;;7.20;99.90;;;;;;4890071;29;20121;-76
2022/12/23 06:31:17;;;;;;;679.75;60.92;;;7.20;99.90;;;;;;4894021;29;20157;-75
2022/12/23 06:33:43;;;;;;;602.47;52.60;;;7.10;99.90;;;;;;4898338;29;20048;-75
2022/12/23 06:36:10;;;;;;;589.28;52.80;;;7.10;99.90;;;;;;4872426;29;20457;-77
2022/12/23 06:38:36;;;;;;;562.88;50.20;;;7.10;99.90;;;;;;4887619;29;20720;-77
2022/12/23 06:41:04;;;;;;;619.03;54.88;;;7.10;99.90;;;;;;4867376;29;20044;-77
2022/12/23 06:43:30;;;;;;;425.33;42.42;;;7.10;99.90;;;;;;4891206;29;20040;-77
2022/12/23 06:45:59;;;;;;;659.97;56.45;;;7.10;99.90;;;;;;4864908;29;20040;-77
2022/12/23 06:48:24;;;;;;;550.05;52.05;;;7.10;99.90;;;;;;4867308;29;20190;-76
2022/12/23 06:50:50;;;;;;;459.40;45.47;;;7.10;99.90;;;;;;4877794;29;20140;-77
2022/12/23 06:53:16;;;;;;;440.80;41.58;;;7.00;99.90;;;;;;4883313;29;20849;-77
2022/12/23 06:55:41;;;;;;;174.02;31.42;;;7.00;99.90;;;;;;4861997;29;20052;-77
2022/12/23 06:58:07;;;;;;;184.35;33.00;;;7.00;99.90;;;;;;4863659;29;20418;-77
2022/12/23 07:00:33;;;;;;;142.23;30.30;;;7.00;99.90;;;;;;4876093;29;20737;-77
2022/12/23 07:02:59;;;;;;;499.10;49.30;;;7.00;99.90;;;;;;4854651;29;20171;-77
2022/12/23 07:05:25;;;;;;;608.75;54.00;;;7.00;99.90;;;;;;4884597;29;20041;-77
2022/12/23 07:07:50;;;;;;;563.03;53.60;;;7.00;99.90;;;;;;4866674;29;20471;-77
2022/12/23 07:10:16;;;;;;;471.52;45.15;;;7.00;99.90;;;;;;4873504;29;20068;-77
2022/12/23 07:12:42;;;;;;;563.22;54.72;;;7.00;99.90;;;;;;4886601;29;20055;-77
2022/12/23 07:15:08;;;;;;;509.33;50.33;;;7.00;99.90;;;;;;4868296;29;20051;-77
2022/12/23 07:17:34;;;;;;;497.60;48.42;;;7.00;99.90;;;;;;4867110;29;20503;-77
2022/12/23 07:20:00;;;;;;;670.95;61.80;;;7.00;99.90;;;;;;4885653;29;20037;-77
2022/12/23 07:22:26;;;;;;;644.47;63.65;;;6.90;99.90;;;;;;4892861;29;20049;-77
2022/12/23 07:24:52;;;;;;;498.73;50.60;;;6.90;99.90;;;;;;4896185;29;20519;-76
2022/12/23 07:27:20;;;;;;;407.65;42.92;;;7.00;99.90;;;;;;4858508;29;20052;-76
2022/12/23 07:29:46;;;;;;;610.00;59.75;;;6.90;99.90;;;;;;4875376;29;20053;-76
2022/12/23 07:32:12;;;;;;;493.73;50.47;;;7.00;99.90;;;;;;4882276;29;20049;-76
2022/12/23 07:34:38;;;;;;;613.80;57.90;;;7.00;99.90;;;;;;4882452;29;20052;-76
2022/12/23 07:37:03;;;;;;;123.03;33.40;;;7.00;99.90;;;;;;4875203;29;20460;-77
2022/12/23 07:39:29;;;;;;;218.85;34.08;;;7.00;99.90;;;;;;4872142;29;20052;-76
2022/12/23 07:41:55;;;;;;;116.72;31.80;;;7.00;99.90;;;;;;4867876;29;20176;-76
2022/12/23 07:44:21;;;;;;;477.42;47.75;;;6.90;99.90;;;;;;4866845;29;20040;-77
2022/12/23 07:46:46;;;;;;;436.15;44.28;;;7.00;99.90;;;;;;4860061;29;20052;-76
2022/12/23 07:49:12;;;;;;;640.88;62.05;;;7.00;99.90;;;;;;4885019;29;20676;-76
2022/12/23 07:51:38;;;;;;;521.40;50.05;;;7.00;99.90;;;;;;4875198;29;20040;-76
2022/12/23 07:54:04;;;;;;;435.08;45.08;;;7.00;99.90;;;;;;4873317;29;20277;-76
2022/12/23 07:56:30;;;;;;;490.30;52.38;;;7.00;99.90;;;;;;4867197;29;20503;-76
2022/12/23 07:58:55;;;;;;;170.30;35.22;;;7.00;99.90;;;;;;4881803;29;20040;-77
2022/12/23 08:01:21;;;;;;;658.03;59.55;;;7.00;99.90;;;;;;4875652;29;20277;-76
2022/12/23 08:03:47;;;;;;;345.92;44.63;;;7.00;99.90;;;;;;4872015;29;20124;-77
2022/12/23 08:06:15;;;;;;;289.30;37.90;;;6.90;99.90;;;;;;4885116;29;20052;-76
2022/12/23 08:08:43;;;;;;;256.17;40.05;;;7.00;99.90;;;;;;4866649;29;20460;-76
2022/12/23 08:11:10;;;;;;;154.10;36.22;;;7.00;99.90;;;;;;4865946;29;20053;-76
2022/12/23 08:13:39;;;;;;;227.55;38.15;;;7.00;99.90;;;;;;4841176;29;20040;-76
2022/12/23 08:16:06;;;;;;;258.48;38.55;;;7.00;99.90;;;;;;4888539;29;20668;-75
2022/12/23 08:18:37;;;;;;;244.52;39.78;;;7.00;99.90;;;;;;4884227;29;20053;-76
2022/12/23 08:21:10;;;;;;;115.55;32.90;;;7.00;99.90;;;;;;4890236;29;20087;-77
2022/12/23 08:23:36;;;;;;;202.57;39.78;;;7.00;99.90;;;;;;4892923;29;20047;-77
2022/12/23 08:26:09;;;;;;;80.63;31.05;;;7.00;99.90;;;;;;4872908;29;20045;-77
2022/12/23 08:28:37;;;;;;;99.03;31.73;;;7.00;99.90;;;;;;4881918;29;20067;-77
2022/12/23 08:31:15;;;;;;;286.67;43.72;;;7.00;99.90;;;;;;4894195;29;20564;-77
2022/12/23 08:33:43;;;;;;;105.75;30.98;;;7.10;99.90;;;;;;4895873;29;20076;-77
2022/12/23 08:36:13;;;;;;;70.93;29.55;;;7.10;99.90;;;;;;4901342;29;20056;-77
2022/12/23 08:38:39;;;;;;;99.88;31.75;;;7.10;99.90;;;;;;4876275;29;20087;-77
2022/12/23 08:41:10;;;;;;;411.08;46.25;;;7.20;99.90;;;;;;4883231;29;20521;-77
2022/12/23 08:43:36;;;;;;;380.65;44.03;;;7.20;99.90;;;;;;4880283;29;20063;-77
2022/12/23 08:46:03;;;;;;;107.07;30.52;;;7.20;99.90;;;;;;4901785;29;20496;-77
2022/12/23 08:48:29;;;;;;;57.67;27.05;;;7.20;99.90;;;;;;4881569;29;20043;-77
2022/12/23 08:50:54;;;;;;;77.60;28.88;;;7.20;99.90;;;;;;4885655;29;20056;-77
2022/12/23 08:53:20;;;;;;;99.05;31.48;;;7.20;99.90;;;;;;4876494;29;20052;-77
2022/12/23 08:55:47;;;;;;;133.38;33.97;;;7.20;99.90;;;;;;4890223;29;20047;-77
2022/12/23 08:58:14;;;;;;;76.38;28.92;;;7.20;99.90;;;;;;4888522;29;20076;-76
2022/12/23 09:00:40;;;;;;;103.70;31.65;;;7.20;99.90;;;;;;4889117;29;20041;-76
2022/12/23 09:03:07;;;;;;;92.28;30.15;;;7.20;99.90;;;;;;4910629;29;20054;-76
2022/12/23 09:05:37;;;;;;;224.07;36.10;;;7.20;99.90;;;;;;4894738;29;20085;-76
2022/12/23 09:08:03;;;;;;;;;;;7.20;99.90;;;;;;4900431;29;20056;-76
2022/12/23 09:10:29;;;;;;;80.75;28.17;;;7.20;99.90;;;;;;4885274;29;20319;-76
2022/12/23 09:12:55;;;;;;;47.10;25.13;;;7.20;99.90;;;;;;4871016;29;20044;-76
2022/12/23 09:15:20;;;;;;;356.60;48.58;;;7.20;99.90;;;;;;4871254;29;20044;-76
2022/12/23 09:17:46;;;;;;;276.98;46.72;;;7.30;99.90;;;;;;4884090;29;20437;-76
2022/12/23 09:20:12;;;;;;;71.57;28.73;;;7.30;99.90;;;;;;4887959;29;20045;-77
2022/12/23 09:22:38;;;;;;;48.63;25.80;;;7.30;99.90;;;;;;4874616;29;20053;-76
2022/12/23 09:25:04;;;;;;;48.60;25.80;;;7.30;99.90;;;;;;4875089;29;20044;-76
2022/12/23 09:27:30;;;;;;;229.50;42.40;;;7.30;99.90;;;;;;4888436;29;20063;-77
2022/12/23 09:29:56;;;;;;;115.15;33.22;;;7.30;99.90;;;;;;4878211;29;20322;-76
2022/12/23 09:32:21;;;;;;;207.98;41.25;;;7.40;99.90;;;;;;4883917;29;20131;-76
2022/12/23 09:34:47;;;;;;;53.28;25.98;;;7.40;99.90;;;;;;4873963;29;20504;-76
2022/12/23 09:37:15;;;;;;;54.90;26.58;;;7.40;99.90;;;;;;4860745;29;20590;-76
2022/12/23 09:39:47;;;;;;;48.10;24.10;;;7.40;99.90;;;;;;4869624;29;20056;-77
2022/12/23 09:42:45;;;;;;;98.07;31.60;;;7.50;99.90;;;;;;4871814;29;20051;-77
2022/12/23 09:45:49;;;;;;;105.32;32.22;;;7.50;99.90;;;;;;4900216;29;20059;-77
2022/12/23 09:48:21;;;;;;;79.05;28.55;;;7.50;99.90;;;;;;4885668;29;20566;-77
2022/12/23 09:50:47;;;;;;;59.15;26.63;;;7.40;99.90;;;;;;4903582;29;20053;-77
2022/12/23 09:53:36;;;;;;;79.18;29.85;;;7.40;99.90;;;;;;4884569;29;20060;-77
2022/12/23 09:56:18;;;;;;;53.00;24.17;;;7.50;99.90;;;;;;4900827;29;20092;-77
2022/12/23 09:59:22;;;;;;;54.58;24.40;;;7.50;99.90;;;;;;4882843;29;20059;-76
2022/12/23 10:01:54;;;;;;;57.67;25.17;;;7.50;99.90;;;;;;4891649;29;20047;-76
2022/12/23 10:04:30;;;;;;;67.72;27.40;;;7.50;99.90;;;;;;4881899;29;20618;-76
2022/12/23 10:07:04;;;;;;;61.55;25.98;;;7.50;99.90;;;;;;4902600;29;20075;-76
2022/12/23 10:09:38;;;;;;;60.85;26.08;;;7.50;99.90;;;;;;4885800;29;20452;-77
2022/12/23 10:12:13;;;;;;;56.25;25.73;;;7.50;99.90;;;;;;4889990;29;20052;-77
2022/12/23 10:14:40;;;;;;;74.43;27.60;;;7.50;99.90;;;;;;4896313;29;20053;-77
2022/12/23 10:17:13;;;;;;;73.35;28.92;;;7.50;99.90;;;;;;4879758;29;20890;-77
2022/12/23 10:19:42;;;;;;;58.67;26.27;;;7.50;99.90;;;;;;4902530;29;20072;-77
2022/12/23 10:22:14;;;;;;;69.87;27.10;;;7.60;99.90;;;;;;4906423;29;20108;-77
2022/12/23 10:24:47;;;;;;;69.13;27.95;;;7.60;99.90;;;;;;4885628;29;20067;-77
2022/12/23 10:27:27;;;;;;;75.68;29.80;;;7.60;99.90;;;;;;4885629;29;20060;-77
2022/12/23 10:29:54;;;;;;;70.18;27.27;;;7.60;99.90;;;;;;4888993;29;20044;-77
2022/12/23 10:32:29;;;;;;;72.03;27.52;;;7.60;99.90;;;;;;4872828;29;20040;-77
2022/12/23 10:35:17;;;;;;;73.43;27.75;;;7.60;99.90;;;;;;4887857;29;20049;-77
2022/12/23 10:37:57;;;;;;;70.15;25.42;;;7.60;99.90;;;;;;4899532;29;20427;-76
2022/12/23 10:40:47;;;;;;;56.92;24.25;;;7.60;99.90;;;;;;4904135;29;20048;-77
2022/12/23 10:43:42;;;;;;;56.95;24.17;;;7.60;99.90;;;;;;4884880;29;20072;-76
2022/12/23 10:46:35;;;;;;;49.97;23.50;;;7.60;99.90;;;;;;4883134;29;20076;-76
2022/12/23 10:49:04;;;;;;;58.58;24.27;;;7.50;99.90;;;;;;4886448;29;20128;-76
2022/12/23 10:51:52;;;;;;;51.88;23.50;;;7.60;99.90;;;;;;4889154;29;20164;-77
2022/12/23 10:54:31;;;;;;;51.10;23.35;;;7.60;99.90;;;;;;4902762;29;20053;-76
2022/12/23 10:56:58;;;;;;;55.53;23.42;;;7.60;99.90;;;;;;4885227;29;20401;-76
2022/12/23 10:59:30;;;;;;;52.17;22.35;;;7.60;99.90;;;;;;4907645;29;20519;-76
2022/12/23 11:02:12;;;;;;;49.72;22.23;;;7.60;99.90;;;;;;4902160;29;20127;-76
2022/12/23 11:04:43;;;;;;;44.95;21.33;;;7.60;99.90;;;;;;4885873;29;20575;-76
2022/12/23 11:07:13;;;;;;;51.17;23.33;;;7.60;99.90;;;;;;4912708;29;20094;-76
2022/12/23 11:10:01;;;;;;;49.85;22.60;;;7.60;99.90;;;;;;4882482;29;20080;-76
2022/12/23 11:12:41;;;;;;;54.58;23.98;;;7.60;99.90;;;;;;4878952;29;20080;-76
2022/12/23 11:15:37;;;;;;;49.40;22.73;;;7.60;99.90;;;;;;4893884;29;20137;-76
2022/12/23 11:18:12;;;;;;;49.10;22.88;;;7.60;99.90;;;;;;4879339;29;20076;-76
2022/12/23 11:20:41;;;;;;;48.05;22.58;;;7.60;99.90;;;;;;4891177;29;20063;-76
2022/12/23 11:23:22;;;;;;;48.35;22.83;;;7.70;99.90;;;;;;4886898;29;20082;-76
2022/12/23 11:25:48;;;;;;;43.97;22.67;;;7.70;99.90;;;;;;4880619;29;20040;-76
2022/12/23 11:28:20;;;;;;;46.80;20.92;;;7.70;99.90;;;;;;4901304;29;20049;-76
2022/12/23 11:31:07;;;;;;;42.67;20.95;;;7.70;99.90;;;;;;4894370;29;20056;-77
2022/12/23 11:34:00;;;;;;;40.28;20.02;;;7.70;99.90;;;;;;4875446;29;20116;-76
2022/12/23 11:36:29;;;;;;;35.72;19.02;;;7.70;99.90;;;;;;4894840;29;20055;-76
2022/12/23 11:39:05;;;;;;;39.88;20.42;;;7.80;99.90;;;;;;4881925;29;20065;-76
2022/12/23 11:41:52;;;;;;;42.03;20.40;;;7.80;99.90;;;;;;4869469;29;20075;-77
2022/12/23 11:44:39;;;;;;;41.50;20.50;;;7.80;99.90;;;;;;4887897;29;20048;-76
2022/12/23 11:47:24;;;;;;;38.25;20.08;;;7.80;99.90;;;;;;4884002;29;20063;-76
2022/12/23 11:49:59;;;;;;;38.55;20.00;;;7.80;99.90;;;;;;4901637;29;20040;-77
2022/12/23 11:52:27;;;;;;;38.35;20.38;;;7.80;99.90;;;;;;4886995;29;20068;-77
2022/12/23 11:55:00;;;;;;;37.50;20.10;;;7.80;99.90;;;;;;4896108;29;20069;-77
2022/12/23 11:57:47;;;;;;;36.83;18.88;;;7.80;99.90;;;;;;4875967;29;20049;-77
2022/12/23 12:00:24;;;;;;;35.55;19.05;;;7.80;99.90;;;;;;4896716;29;20053;-77
2022/12/23 12:02:53;;;;;;;35.97;19.60;;;7.90;99.90;;;;;;4871461;29;20396;-77
2022/12/23 12:05:36;;;;;;;32.17;18.33;;;7.90;99.90;;;;;;4903229;29;20040;-77
2022/12/23 12:08:09;;;;;;;29.83;17.55;;;7.90;99.90;;;;;;4896572;29;20427;-77
2022/12/23 12:10:38;;;;;;;34.50;17.85;;;7.90;99.90;;;;;;4888950;29;20343;-76
2022/12/23 12:13:34;;;;;;;31.30;17.45;;;7.90;99.90;;;;;;4905412;29;20305;-77
2022/12/23 12:16:33;;;;;;;33.15;18.40;;;7.90;99.90;;;;;;4883463;29;20500;-77
2022/12/23 12:19:34;;;;;;;30.17;17.98;;;7.90;99.90;;;;;;4903578;29;20132;-76
2022/12/23 12:22:08;;;;;;;31.88;18.48;;;7.90;99.90;;;;;;4883235;29;20040;-77
2022/12/23 12:24:40;;;;;;;28.40;18.00;;;7.90;99.90;;;;;;4875332;29;20048;-76
2022/12/23 12:27:09;;;;;;;32.00;18.00;;;7.90;99.90;;;;;;4877940;29;20141;-76
2022/12/23 12:29:49;;;;;;;32.15;18.08;;;7.90;99.90;;;;;;4873235;29;20059;-76
2022/12/23 12:32:29;;;;;;;33.03;17.90;;;7.90;99.90;;;;;;4900653;29;20111;-76
2022/12/23 12:35:09;;;;;;;29.55;17.42;;;7.90;99.90;;;;;;4879015;29;20059;-78
2022/12/23 12:37:37;;;;;;;27.05;16.80;;;7.90;99.90;;;;;;4879164;29;20135;-77
2022/12/23 12:40:40;;;;;;;32.00;17.98;;;8.00;99.90;;;;;;4883338;29;20052;-77
2022/12/23 12:43:15;;;;;;;37.25;19.88;;;8.00;99.90;;;;;;4871851;29;20459;-77
2022/12/23 12:45:49;;;;;;;34.85;19.77;;;7.90;99.90;;;;;;4880686;29;20411;-78
2022/12/23 12:48:31;;;;;;;33.50;20.48;;;7.90;99.90;;;;;;4879443;29;20105;-78
2022/12/23 12:51:19;;;;;;;35.42;20.05;;;7.90;99.90;;;;;;4881277;29;20053;-78
2022/12/23 12:54:09;;;;;;;37.00;21.20;;;7.90;99.90;;;;;;4885183;29;20049;-77
2022/12/23 12:57:05;;;;;;;36.17;21.20;;;7.90;99.90;;;;;;4892231;29;20523;-78
2022/12/23 12:59:36;;;;;;;36.97;21.90;;;7.90;99.90;;;;;;4883771;29;20101;-78
2022/12/23 13:02:26;;;;;;;41.45;24.70;;;7.90;99.90;;;;;;4886619;29;20059;-78
2022/12/23 13:05:08;;;;;;;44.92;25.27;;;7.90;99.90;;;;;;4890115;29;20644;-78
2022/12/23 13:07:52;;;;;;;40.78;23.90;;;7.90;99.90;;;;;;4901970;29;20057;-78
2022/12/23 13:10:46;;;;;;;39.33;24.60;;;7.90;99.90;;;;;;4877465;29;20050;-78
2022/12/23 13:13:41;;;;;;;40.55;25.55;;;7.90;99.90;;;;;;4900141;29;20128;-79
2022/12/23 13:16:16;;;;;;;39.08;25.73;;;7.90;99.90;;;;;;4873508;29;20567;-78
2022/12/23 13:18:50;;;;;;;45.63;26.23;;;7.90;99.90;;;;;;4877992;29;20399;-78
2022/12/23 13:21:37;;;;;;;42.63;26.00;;;7.90;99.90;;;;;;4884784;29;20076;-78